createdAt,value
2022-08-25T00:02:59.928Z,100600.39
2022-08-25T00:09:18.920Z,100596.48
2022-08-25T00:15:43.186Z,100593.34
2022-08-25T00:22:07.426Z,100593.85
2022-08-25T00:28:31.731Z,100589.63
2022-08-25T00:34:55.601Z,100584.02
2022-08-25T00:41:29.097Z,100579.55
2022-08-25T00:47:53.373Z,100571.52
2022-08-25T00:54:17.719Z,100573.61
2022-08-25T01:00:41.991Z,100572.73
2022-08-25T01:07:06.191Z,100576.17
2022-08-25T01:13:34.474Z,100575.89
2022-08-25T01:19:58.416Z,100576.10
2022-08-25T01:26:30.144Z,100578.57
2022-08-25T01:32:55.231Z,100582.75
2022-08-25T01:39:12.275Z,100576.02
2022-08-25T01:45:36.605Z,100579.85
2022-08-25T01:52:01.167Z,100580.53
2022-08-25T01:58:25.531Z,100583.80
2022-08-25T02:04:50.714Z,100587.50
2022-08-25T02:11:15.183Z,100595.30
2022-08-25T02:17:39.414Z,100587.88
2022-08-25T02:24:03.653Z,100584.92
2022-08-25T02:30:27.973Z,100584.81
2022-08-25T02:36:50.806Z,100584.46
2022-08-25T02:43:14.981Z,100586.93
2022-08-25T02:49:39.186Z,100582.64
2022-08-25T02:56:03.461Z,100582.16
2022-08-25T03:02:27.742Z,100577.05
2022-08-25T03:08:51.936Z,100568.02
2022-08-25T03:15:16.148Z,100566.56
2022-08-25T03:21:40.874Z,100558.11
2022-08-25T03:28:05.330Z,100557.45
2022-08-25T03:34:29.770Z,100557.17
2022-08-25T03:40:49.338Z,100558.81
2022-08-25T03:47:22.661Z,100559.63
2022-08-25T03:53:46.917Z,100565.89
2022-08-25T04:00:11.181Z,100565.55
2022-08-25T04:06:38.326Z,100557.80
2022-08-25T04:13:02.637Z,100550.31
2022-08-25T04:19:26.940Z,100545.33
2022-08-25T04:25:44.031Z,100546.11
2022-08-25T04:32:06.172Z,100547.01
2022-08-25T04:38:30.523Z,100550.94
2022-08-25T04:44:54.841Z,100547.66
2022-08-25T04:51:19.180Z,100544.65
2022-08-25T04:57:43.537Z,100543.85
2022-08-25T05:04:07.819Z,100543.64
2022-08-25T05:10:33.187Z,100545.23
2022-08-25T05:16:57.464Z,100543.49
2022-08-25T05:23:21.767Z,100540.15
2022-08-25T05:29:46.101Z,100541.13
2022-08-25T05:36:10.387Z,100533.83
2022-08-25T05:42:34.881Z,100529.13
2022-08-25T05:48:59.264Z,100535.05
2022-08-25T05:55:23.565Z,100540.80
2022-08-25T06:01:46.556Z,100543.84
2022-08-25T06:08:10.923Z,100545.74
2022-08-25T06:14:35.301Z,100545.27
2022-08-25T06:20:59.581Z,100544.42
2022-08-25T06:27:23.968Z,100548.89
2022-08-25T06:33:48.173Z,100546.58
2022-08-25T06:40:12.460Z,100548.88
2022-08-25T06:46:37.273Z,100555.06
2022-08-25T06:53:01.739Z,100557.80
2022-08-25T06:59:26.039Z,100559.73
2022-08-25T07:05:56.692Z,100556.36
2022-08-25T07:12:20.989Z,100558.77
2022-08-25T07:18:45.365Z,100563.55
2022-08-25T07:25:09.781Z,100565.72
2022-08-25T07:31:34.207Z,100568.38
2022-08-25T07:37:58.728Z,100569.25
2022-08-25T07:44:24.552Z,100571.23
2022-08-25T07:50:52.530Z,100571.31
2022-08-25T07:57:10.791Z,100573.54
2022-08-25T08:03:45.669Z,100574.48
2022-08-25T08:17:00.168Z,100574.56
2022-08-25T08:23:25.714Z,100570.20
2022-08-25T08:29:50.119Z,100569.30
2022-08-25T08:36:14.471Z,100568.24
2022-08-25T08:42:50.418Z,100573.32
2022-08-25T08:56:13.113Z,100573.48
2022-08-25T09:02:39.312Z,100568.48
2022-08-25T09:09:19.245Z,100567.83
2022-08-25T09:15:54.669Z,100564.20
2022-08-25T09:22:33.607Z,100565.61
2022-08-25T09:29:00.429Z,100567.23
2022-08-25T09:35:24.707Z,100563.71
2022-08-25T09:41:51.327Z,100564.25
2022-08-25T09:48:15.971Z,100562.88
2022-08-25T09:54:44.242Z,100560.47
2022-08-25T10:01:14.246Z,100552.83
2022-08-25T10:07:38.686Z,100548.08
2022-08-25T10:14:03.186Z,100540.05
2022-08-25T10:20:27.500Z,100529.14
2022-08-25T10:27:08.673Z,100516.79
2022-08-25T10:33:51.142Z,100514.45
2022-08-25T10:40:18.331Z,100513.71
2022-08-25T10:47:18.133Z,100508.86
2022-08-25T10:53:47.454Z,100503.54
2022-08-25T11:00:33.383Z,100496.34
2022-08-25T11:07:31.205Z,100498.80
2022-08-25T11:14:06.321Z,100491.59
2022-08-25T11:20:42.297Z,100482.77
2022-08-25T11:27:09.914Z,100475.20
2022-08-25T11:33:39.277Z,100468.64
2022-08-25T11:40:11.907Z,100466.42
2022-08-25T11:46:49.421Z,100466.44
2022-08-25T11:53:37.945Z,100462.88
2022-08-25T12:00:06.741Z,100462.54
2022-08-25T12:06:32.152Z,100457.27
2022-08-25T12:13:12.082Z,100455.49
2022-08-25T12:19:38.085Z,100455.00
2022-08-25T12:26:07.065Z,100454.91
2022-08-25T12:32:38.847Z,100456.42
2022-08-25T12:39:10.939Z,100450.46
2022-08-25T12:45:53.794Z,100452.88
2022-08-25T12:52:17.629Z,100447.94
2022-08-25T12:59:00.303Z,100442.25
2022-08-25T13:05:43.881Z,100433.98
2022-08-25T13:12:29.389Z,100426.63
2022-08-25T13:18:54.061Z,100426.45
2022-08-25T13:25:42.250Z,100415.58
2022-08-25T13:32:09.251Z,100415.39
2022-08-25T13:38:34.093Z,100413.04
2022-08-25T13:44:59.590Z,100406.23
2022-08-25T13:51:31.306Z,100402.09
2022-08-25T13:57:58.739Z,100401.38
2022-08-25T14:04:14.859Z,100402.06
2022-08-25T14:10:39.117Z,100397.31
2022-08-25T14:17:39.018Z,100396.14
2022-08-25T14:24:14.721Z,100387.88
2022-08-25T14:30:46.135Z,100380.05
2022-08-25T14:37:09.991Z,100380.27
2022-08-25T14:43:34.458Z,100382.42
2022-08-25T14:49:55.093Z,100384.52
2022-08-25T14:56:20.694Z,100381.09
2022-08-25T15:02:44.933Z,100381.38
2022-08-25T15:09:33.535Z,100377.78
2022-08-25T15:15:52.450Z,100380.20
2022-08-25T15:22:10.163Z,100375.59
2022-08-25T15:28:35.508Z,100378.93
2022-08-25T15:35:03.808Z,100377.55
2022-08-25T15:41:33.196Z,100377.13
2022-08-25T15:47:54.127Z,100373.77
2022-08-25T15:54:18.761Z,100366.38
2022-08-25T16:00:43.505Z,100362.20
2022-08-25T16:07:15.641Z,100362.48
2022-08-25T16:13:40.957Z,100364.77
2022-08-25T16:20:06.636Z,100359.88
2022-08-25T16:26:31.012Z,100355.29
2022-08-25T16:32:55.322Z,100359.04
2022-08-25T16:39:20.631Z,100358.78
2022-08-25T16:45:45.312Z,100354.10
2022-08-25T16:52:09.839Z,100359.61
2022-08-25T16:58:34.116Z,100359.80
2022-08-25T17:04:58.423Z,100359.73
2022-08-25T17:11:24.231Z,100368.48
2022-08-25T17:17:48.592Z,100370.75
2022-08-25T17:24:13.047Z,100371.27
2022-08-25T17:30:37.317Z,100373.94
2022-08-25T17:37:01.757Z,100378.85
2022-08-25T17:43:17.458Z,100386.58
2022-08-25T17:49:43.072Z,100388.98
2022-08-25T17:56:07.507Z,100394.58
2022-08-25T18:02:31.818Z,100402.75
2022-08-25T18:09:00.043Z,100405.88
2022-08-25T18:15:24.537Z,100412.27
2022-08-25T18:21:50.086Z,100413.16
2022-08-25T18:28:16.916Z,100416.77
2022-08-25T18:34:41.167Z,100412.86
2022-08-25T18:41:05.604Z,100415.32
2022-08-25T18:47:29.869Z,100416.28
2022-08-25T18:53:54.614Z,100414.85
2022-08-25T19:00:25.183Z,100415.07
2022-08-25T19:06:49.538Z,100418.84
2022-08-25T19:13:16.401Z,100417.19
2022-08-25T19:19:46.796Z,100421.48
2022-08-25T19:26:16.876Z,100418.61
2022-08-25T19:32:41.760Z,100415.36
2022-08-25T19:39:06.083Z,100413.21
2022-08-25T19:45:16.892Z,100409.69
2022-08-25T19:51:41.246Z,100407.49
2022-08-25T19:58:09.091Z,100404.06
